sensor_id;sensor_type;location;lat;lon;timestamp;P1;durP1;ratioP1;P2;durP2;ratioP2
23474;SDS011;11910;52.086;21.066;2022-12-07T00:14:14;59.63;;;36.53;;
23474;SDS011;11910;52.086;21.066;2022-12-07T00:20:58;56.50;;;32.42;;
23474;SDS011;11910;52.086;21.066;2022-12-07T00:23:50;67.53;;;38.88;;
23474;SDS011;11910;52.086;21.066;2022-12-07T00:34:25;59.63;;;36.17;;
23474;SDS011;11910;52.086;21.066;2022-12-07T00:40:41;52.60;;;33.10;;
23474;SDS011;11910;52.086;21.066;2022-12-07T00:43:48;46.65;;;30.42;;
23474;SDS011;11910;52.086;21.066;2022-12-07T01:06:55;57.13;;;35.05;;
23474;SDS011;11910;52.086;21.066;2022-12-07T01:09:21;50.97;;;31.13;;
23474;SDS011;11910;52.086;21.066;2022-12-07T01:11:46;45.38;;;28.98;;
23474;SDS011;11910;52.086;21.066;2022-12-07T01:14:12;44.42;;;28.10;;
23474;SDS011;11910;52.086;21.066;2022-12-07T01:16:38;43.47;;;27.75;;
23474;SDS011;11910;52.086;21.066;2022-12-07T01:19:04;39.47;;;26.00;;
23474;SDS011;11910;52.086;21.066;2022-12-07T01:21:31;40.63;;;26.73;;
23474;SDS011;11910;52.086;21.066;2022-12-07T01:24:08;41.47;;;26.50;;
23474;SDS011;11910;52.086;21.066;2022-12-07T01:26:36;36.47;;;24.42;;
23474;SDS011;11910;52.086;21.066;2022-12-07T01:29:01;36.15;;;23.52;;
23474;SDS011;11910;52.086;21.066;2022-12-07T01:31:30;40.25;;;24.67;;
23474;SDS011;11910;52.086;21.066;2022-12-07T01:33:57;39.28;;;25.15;;
23474;SDS011;11910;52.086;21.066;2022-12-07T01:36:31;36.67;;;22.83;;
23474;SDS011;11910;52.086;21.066;2022-12-07T01:39:01;37.40;;;23.33;;
23474;SDS011;11910;52.086;21.066;2022-12-07T01:41:35;38.20;;;23.83;;
23474;SDS011;11910;52.086;21.066;2022-12-07T01:46:54;36.05;;;23.20;;
23474;SDS011;11910;52.086;21.066;2022-12-07T01:52:10;31.52;;;20.80;;
23474;SDS011;11910;52.086;21.066;2022-12-07T01:54:54;32.13;;;21.48;;
23474;SDS011;11910;52.086;21.066;2022-12-07T01:57:23;29.50;;;19.40;;
23474;SDS011;11910;52.086;21.066;2022-12-07T01:59:49;26.60;;;18.35;;
23474;SDS011;11910;52.086;21.066;2022-12-07T02:02:24;26.92;;;18.23;;
23474;SDS011;11910;52.086;21.066;2022-12-07T02:04:59;26.08;;;17.27;;
23474;SDS011;11910;52.086;21.066;2022-12-07T02:07:31;27.67;;;18.60;;
23474;SDS011;11910;52.086;21.066;2022-12-07T02:12:42;26.05;;;18.20;;
23474;SDS011;11910;52.086;21.066;2022-12-07T02:15:13;28.38;;;19.02;;
23474;SDS011;11910;52.086;21.066;2022-12-07T02:17:55;26.92;;;18.63;;
23474;SDS011;11910;52.086;21.066;2022-12-07T02:20:39;31.88;;;19.83;;
23474;SDS011;11910;52.086;21.066;2022-12-07T02:26:26;26.33;;;17.98;;
23474;SDS011;11910;52.086;21.066;2022-12-07T02:32:18;27.25;;;18.13;;
23474;SDS011;11910;52.086;21.066;2022-12-07T02:34:49;26.25;;;17.85;;
23474;SDS011;11910;52.086;21.066;2022-12-07T02:40:07;30.10;;;19.35;;
23474;SDS011;11910;52.086;21.066;2022-12-07T02:42:50;25.50;;;17.30;;
23474;SDS011;11910;52.086;21.066;2022-12-07T02:45:19;24.88;;;16.67;;
23474;SDS011;11910;52.086;21.066;2022-12-07T02:47:48;24.17;;;16.42;;
23474;SDS011;11910;52.086;21.066;2022-12-07T02:50:21;21.77;;;14.65;;
23474;SDS011;11910;52.086;21.066;2022-12-07T02:52:47;19.15;;;13.68;;
23474;SDS011;11910;52.086;21.066;2022-12-07T02:55:13;19.58;;;13.70;;
23474;SDS011;11910;52.086;21.066;2022-12-07T02:57:47;22.58;;;15.20;;
23474;SDS011;11910;52.086;21.066;2022-12-07T03:00:15;18.83;;;14.15;;
23474;SDS011;11910;52.086;21.066;2022-12-07T03:03:04;21.00;;;14.90;;
23474;SDS011;11910;52.086;21.066;2022-12-07T03:05:40;22.52;;;16.10;;
23474;SDS011;11910;52.086;21.066;2022-12-07T03:11:12;23.17;;;15.90;;
23474;SDS011;11910;52.086;21.066;2022-12-07T03:13:58;20.17;;;15.65;;
23474;SDS011;11910;52.086;21.066;2022-12-07T03:16:33;20.83;;;14.38;;
23474;SDS011;11910;52.086;21.066;2022-12-07T03:19:08;19.42;;;15.00;;
23474;SDS011;11910;52.086;21.066;2022-12-07T03:21:39;19.15;;;13.38;;
23474;SDS011;11910;52.086;21.066;2022-12-07T03:24:17;21.17;;;13.98;;
23474;SDS011;11910;52.086;21.066;2022-12-07T03:26:47;17.83;;;13.13;;
23474;SDS011;11910;52.086;21.066;2022-12-07T03:29:23;15.50;;;12.20;;
23474;SDS011;11910;52.086;21.066;2022-12-07T03:32:01;17.13;;;12.75;;
23474;SDS011;11910;52.086;21.066;2022-12-07T03:34:47;15.18;;;11.55;;
23474;SDS011;11910;52.086;21.066;2022-12-07T03:40:21;14.23;;;11.25;;
23474;SDS011;11910;52.086;21.066;2022-12-07T03:42:51;15.27;;;11.60;;
23474;SDS011;11910;52.086;21.066;2022-12-07T03:45:18;16.95;;;11.52;;
23474;SDS011;11910;52.086;21.066;2022-12-07T03:53:51;15.30;;;11.48;;
23474;SDS011;11910;52.086;21.066;2022-12-07T03:56:37;16.27;;;11.23;;
23474;SDS011;11910;52.086;21.066;2022-12-07T03:59:04;17.63;;;11.90;;
23474;SDS011;11910;52.086;21.066;2022-12-07T04:01:31;16.95;;;11.90;;
23474;SDS011;11910;52.086;21.066;2022-12-07T04:03:56;16.95;;;12.73;;
23474;SDS011;11910;52.086;21.066;2022-12-07T04:06:22;16.95;;;12.63;;
23474;SDS011;11910;52.086;21.066;2022-12-07T04:08:48;21.55;;;14.90;;
23474;SDS011;11910;52.086;21.066;2022-12-07T04:11:13;24.88;;;17.35;;
23474;SDS011;11910;52.086;21.066;2022-12-07T04:13:39;22.38;;;15.70;;
23474;SDS011;11910;52.086;21.066;2022-12-07T04:16:23;21.23;;;14.50;;
23474;SDS011;11910;52.086;21.066;2022-12-07T04:18:49;23.05;;;16.30;;
23474;SDS011;11910;52.086;21.066;2022-12-07T04:21:14;19.33;;;14.15;;
23474;SDS011;11910;52.086;21.066;2022-12-07T04:23:40;18.85;;;13.98;;
23474;SDS011;11910;52.086;21.066;2022-12-07T04:26:06;22.75;;;16.33;;
23474;SDS011;11910;52.086;21.066;2022-12-07T04:28:32;20.88;;;15.60;;
23474;SDS011;11910;52.086;21.066;2022-12-07T04:30:57;23.13;;;15.60;;
23474;SDS011;11910;52.086;21.066;2022-12-07T04:33:29;19.17;;;14.23;;
23474;SDS011;11910;52.086;21.066;2022-12-07T04:35:55;19.05;;;14.13;;
23474;SDS011;11910;52.086;21.066;2022-12-07T04:38:20;21.27;;;14.68;;
23474;SDS011;11910;52.086;21.066;2022-12-07T04:40:46;17.80;;;13.80;;
23474;SDS011;11910;52.086;21.066;2022-12-07T04:43:11;18.00;;;13.27;;
23474;SDS011;11910;52.086;21.066;2022-12-07T04:45:37;23.30;;;15.20;;
23474;SDS011;11910;52.086;21.066;2022-12-07T04:48:03;18.73;;;13.85;;
23474;SDS011;11910;52.086;21.066;2022-12-07T04:50:28;20.65;;;14.45;;
23474;SDS011;11910;52.086;21.066;2022-12-07T04:52:54;18.20;;;13.48;;
23474;SDS011;11910;52.086;21.066;2022-12-07T04:55:20;18.50;;;13.48;;
23474;SDS011;11910;52.086;21.066;2022-12-07T04:57:48;19.33;;;14.10;;
23474;SDS011;11910;52.086;21.066;2022-12-07T05:00:14;19.88;;;14.32;;
23474;SDS011;11910;52.086;21.066;2022-12-07T05:02:39;19.88;;;14.13;;
23474;SDS011;11910;52.086;21.066;2022-12-07T05:05:05;18.83;;;13.43;;
23474;SDS011;11910;52.086;21.066;2022-12-07T05:07:31;19.30;;;13.88;;
23474;SDS011;11910;52.086;21.066;2022-12-07T05:09:57;23.00;;;14.73;;
23474;SDS011;11910;52.086;21.066;2022-12-07T05:12:22;19.25;;;13.10;;
23474;SDS011;11910;52.086;21.066;2022-12-07T05:14:48;20.45;;;14.13;;
23474;SDS011;11910;52.086;21.066;2022-12-07T05:17:13;23.80;;;15.02;;
23474;SDS011;11910;52.086;21.066;2022-12-07T05:19:39;30.25;;;16.15;;
23474;SDS011;11910;52.086;21.066;2022-12-07T05:22:05;16.88;;;13.40;;
23474;SDS011;11910;52.086;21.066;2022-12-07T05:24:30;19.45;;;14.30;;
23474;SDS011;11910;52.086;21.066;2022-12-07T05:26:56;18.45;;;13.50;;
23474;SDS011;11910;52.086;21.066;2022-12-07T05:29:22;22.10;;;15.10;;
23474;SDS011;11910;52.086;21.066;2022-12-07T05:31:47;20.38;;;14.70;;
23474;SDS011;11910;52.086;21.066;2022-12-07T05:34:13;18.40;;;13.77;;
23474;SDS011;11910;52.086;21.066;2022-12-07T05:36:38;25.08;;;15.68;;
23474;SDS011;11910;52.086;21.066;2022-12-07T05:39:04;18.30;;;13.70;;
23474;SDS011;11910;52.086;21.066;2022-12-07T05:41:30;18.27;;;13.02;;
23474;SDS011;11910;52.086;21.066;2022-12-07T05:44:14;20.13;;;14.38;;
23474;SDS011;11910;52.086;21.066;2022-12-07T05:46:40;20.23;;;13.98;;
23474;SDS011;11910;52.086;21.066;2022-12-07T05:49:06;19.13;;;14.77;;
23474;SDS011;11910;52.086;21.066;2022-12-07T05:51:31;19.58;;;13.93;;
23474;SDS011;11910;52.086;21.066;2022-12-07T05:53:57;23.95;;;16.70;;
23474;SDS011;11910;52.086;21.066;2022-12-07T05:56:23;23.02;;;16.25;;
23474;SDS011;11910;52.086;21.066;2022-12-07T05:58:49;22.20;;;15.05;;
23474;SDS011;11910;52.086;21.066;2022-12-07T06:01:33;39.63;;;18.50;;
23474;SDS011;11910;52.086;21.066;2022-12-07T06:03:59;25.88;;;16.55;;
23474;SDS011;11910;52.086;21.066;2022-12-07T06:06:24;22.52;;;14.68;;
23474;SDS011;11910;52.086;21.066;2022-12-07T06:08:50;21.25;;;15.40;;
23474;SDS011;11910;52.086;21.066;2022-12-07T06:11:16;26.60;;;16.90;;
23474;SDS011;11910;52.086;21.066;2022-12-07T06:14:00;20.70;;;14.98;;
23474;SDS011;11910;52.086;21.066;2022-12-07T06:16:25;24.52;;;16.60;;
23474;SDS011;11910;52.086;21.066;2022-12-07T06:18:51;27.17;;;17.13;;
23474;SDS011;11910;52.086;21.066;2022-12-07T06:21:17;24.75;;;16.63;;
23474;SDS011;11910;52.086;21.066;2022-12-07T06:23:42;26.35;;;17.80;;
23474;SDS011;11910;52.086;21.066;2022-12-07T06:26:08;28.52;;;18.40;;
23474;SDS011;11910;52.086;21.066;2022-12-07T06:28:33;25.73;;;18.80;;
23474;SDS011;11910;52.086;21.066;2022-12-07T06:31:00;26.60;;;18.10;;
23474;SDS011;11910;52.086;21.066;2022-12-07T06:33:26;26.23;;;18.90;;
23474;SDS011;11910;52.086;21.066;2022-12-07T06:35:52;28.15;;;19.13;;
23474;SDS011;11910;52.086;21.066;2022-12-07T06:38:18;27.73;;;18.38;;
23474;SDS011;11910;52.086;21.066;2022-12-07T06:40:44;28.13;;;18.02;;
23474;SDS011;11910;52.086;21.066;2022-12-07T06:43:10;28.25;;;17.67;;
23474;SDS011;11910;52.086;21.066;2022-12-07T06:45:35;27.80;;;17.42;;
23474;SDS011;11910;52.086;21.066;2022-12-07T06:48:01;22.10;;;15.38;;
23474;SDS011;11910;52.086;21.066;2022-12-07T06:50:27;31.85;;;18.55;;
23474;SDS011;11910;52.086;21.066;2022-12-07T06:52:53;26.90;;;17.88;;
23474;SDS011;11910;52.086;21.066;2022-12-07T06:55:18;30.15;;;18.25;;
23474;SDS011;11910;52.086;21.066;2022-12-07T06:57:44;27.38;;;18.25;;
23474;SDS011;11910;52.086;21.066;2022-12-07T07:00:10;30.05;;;18.13;;
23474;SDS011;11910;52.086;21.066;2022-12-07T07:02:36;44.83;;;21.88;;
23474;SDS011;11910;52.086;21.066;2022-12-07T07:05:02;25.20;;;17.60;;
23474;SDS011;11910;52.086;21.066;2022-12-07T07:07:28;28.42;;;18.33;;
23474;SDS011;11910;52.086;21.066;2022-12-07T07:09:54;28.40;;;18.67;;
23474;SDS011;11910;52.086;21.066;2022-12-07T07:12:19;31.63;;;19.13;;
23474;SDS011;11910;52.086;21.066;2022-12-07T07:14:45;28.50;;;18.52;;
23474;SDS011;11910;52.086;21.066;2022-12-07T07:17:11;24.73;;;16.90;;
23474;SDS011;11910;52.086;21.066;2022-12-07T07:19:36;28.55;;;18.73;;
23474;SDS011;11910;52.086;21.066;2022-12-07T07:22:02;29.92;;;18.88;;
23474;SDS011;11910;52.086;21.066;2022-12-07T07:24:28;26.77;;;17.90;;
23474;SDS011;11910;52.086;21.066;2022-12-07T07:26:54;27.88;;;18.33;;
23474;SDS011;11910;52.086;21.066;2022-12-07T07:29:20;26.58;;;18.13;;
23474;SDS011;11910;52.086;21.066;2022-12-07T07:31:45;32.58;;;20.10;;
23474;SDS011;11910;52.086;21.066;2022-12-07T07:34:11;32.58;;;19.73;;
23474;SDS011;11910;52.086;21.066;2022-12-07T07:36:37;27.33;;;18.92;;
23474;SDS011;11910;52.086;21.066;2022-12-07T07:39:02;34.00;;;20.33;;
23474;SDS011;11910;52.086;21.066;2022-12-07T07:41:28;31.88;;;19.88;;
23474;SDS011;11910;52.086;21.066;2022-12-07T07:43:54;30.50;;;19.52;;
23474;SDS011;11910;52.086;21.066;2022-12-07T07:46:19;30.98;;;19.13;;
23474;SDS011;11910;52.086;21.066;2022-12-07T07:48:45;29.23;;;19.25;;
23474;SDS011;11910;52.086;21.066;2022-12-07T07:51:16;26.83;;;18.67;;
23474;SDS011;11910;52.086;21.066;2022-12-07T07:53:45;35.03;;;21.05;;
23474;SDS011;11910;52.086;21.066;2022-12-07T07:56:14;29.42;;;18.63;;
23474;SDS011;11910;52.086;21.066;2022-12-07T07:58:40;27.88;;;18.10;;
23474;SDS011;11910;52.086;21.066;2022-12-07T08:01:06;27.33;;;19.15;;
23474;SDS011;11910;52.086;21.066;2022-12-07T08:03:32;28.65;;;18.67;;
23474;SDS011;11910;52.086;21.066;2022-12-07T08:05:59;25.80;;;18.15;;
23474;SDS011;11910;52.086;21.066;2022-12-07T08:08:24;23.75;;;16.73;;
23474;SDS011;11910;52.086;21.066;2022-12-07T08:10:50;22.65;;;17.23;;
23474;SDS011;11910;52.086;21.066;2022-12-07T08:13:16;26.30;;;19.48;;
23474;SDS011;11910;52.086;21.066;2022-12-07T08:15:42;25.65;;;16.98;;
23474;SDS011;11910;52.086;21.066;2022-12-07T08:18:11;25.45;;;18.25;;
23474;SDS011;11910;52.086;21.066;2022-12-07T08:20:38;30.67;;;20.60;;
23474;SDS011;11910;52.086;21.066;2022-12-07T08:23:05;28.25;;;18.88;;
23474;SDS011;11910;52.086;21.066;2022-12-07T08:25:32;26.35;;;18.42;;
23474;SDS011;11910;52.086;21.066;2022-12-07T08:27:58;25.90;;;18.00;;
23474;SDS011;11910;52.086;21.066;2022-12-07T08:30:25;29.35;;;18.92;;
23474;SDS011;11910;52.086;21.066;2022-12-07T08:32:52;25.30;;;17.08;;
23474;SDS011;11910;52.086;21.066;2022-12-07T08:35:18;23.67;;;16.38;;
23474;SDS011;11910;52.086;21.066;2022-12-07T08:37:44;23.95;;;16.33;;
23474;SDS011;11910;52.086;21.066;2022-12-07T08:40:10;26.75;;;16.30;;
23474;SDS011;11910;52.086;21.066;2022-12-07T08:42:40;28.05;;;16.52;;
23474;SDS011;11910;52.086;21.066;2022-12-07T08:45:07;25.77;;;16.55;;
23474;SDS011;11910;52.086;21.066;2022-12-07T08:47:35;27.15;;;17.25;;
23474;SDS011;11910;52.086;21.066;2022-12-07T08:50:05;27.08;;;16.83;;
23474;SDS011;11910;52.086;21.066;2022-12-07T08:52:34;33.83;;;18.15;;
23474;SDS011;11910;52.086;21.066;2022-12-07T08:55:00;29.63;;;16.35;;
23474;SDS011;11910;52.086;21.066;2022-12-07T08:57:28;30.00;;;17.27;;
23474;SDS011;11910;52.086;21.066;2022-12-07T08:59:57;26.92;;;16.88;;
23474;SDS011;11910;52.086;21.066;2022-12-07T09:02:23;28.45;;;17.70;;
23474;SDS011;11910;52.086;21.066;2022-12-07T09:04:49;27.40;;;17.08;;
23474;SDS011;11910;52.086;21.066;2022-12-07T09:07:14;27.65;;;17.40;;
23474;SDS011;11910;52.086;21.066;2022-12-07T09:09:40;27.23;;;17.30;;
23474;SDS011;11910;52.086;21.066;2022-12-07T09:12:06;29.42;;;17.90;;
23474;SDS011;11910;52.086;21.066;2022-12-07T09:14:32;30.50;;;18.15;;
23474;SDS011;11910;52.086;21.066;2022-12-07T09:17:07;30.55;;;18.55;;
23474;SDS011;11910;52.086;21.066;2022-12-07T09:19:35;30.08;;;18.65;;
23474;SDS011;11910;52.086;21.066;2022-12-07T09:22:02;28.80;;;18.00;;
23474;SDS011;11910;52.086;21.066;2022-12-07T09:24:32;28.33;;;17.83;;
23474;SDS011;11910;52.086;21.066;2022-12-07T09:26:58;29.38;;;18.35;;
23474;SDS011;11910;52.086;21.066;2022-12-07T09:32:33;29.15;;;17.98;;
23474;SDS011;11910;52.086;21.066;2022-12-07T09:35:04;29.83;;;18.70;;
23474;SDS011;11910;52.086;21.066;2022-12-07T09:37:59;32.63;;;18.83;;
23474;SDS011;11910;52.086;21.066;2022-12-07T09:40:34;35.50;;;20.73;;
23474;SDS011;11910;52.086;21.066;2022-12-07T09:43:18;32.58;;;19.35;;
23474;SDS011;11910;52.086;21.066;2022-12-07T09:45:58;32.33;;;20.05;;
23474;SDS011;11910;52.086;21.066;2022-12-07T14:30:30;22.45;;;16.95;;
23474;SDS011;11910;52.086;21.066;2022-12-07T14:36:48;23.92;;;18.30;;
23474;SDS011;11910;52.086;21.066;2022-12-07T14:39:26;21.15;;;16.92;;
23474;SDS011;11910;52.086;21.066;2022-12-07T14:42:18;22.63;;;17.00;;
23474;SDS011;11910;52.086;21.066;2022-12-07T14:44:54;21.60;;;16.73;;
23474;SDS011;11910;52.086;21.066;2022-12-07T14:47:24;23.48;;;18.05;;
23474;SDS011;11910;52.086;21.066;2022-12-07T14:53:16;18.30;;;13.90;;
23474;SDS011;11910;52.086;21.066;2022-12-07T14:55:58;22.85;;;17.55;;
23474;SDS011;11910;52.086;21.066;2022-12-07T14:58:24;22.92;;;17.67;;
23474;SDS011;11910;52.086;21.066;2022-12-07T15:04:16;25.35;;;18.63;;
23474;SDS011;11910;52.086;21.066;2022-12-07T17:41:19;28.90;;;20.27;;
23474;SDS011;11910;52.086;21.066;2022-12-07T17:44:07;30.02;;;20.52;;
23474;SDS011;11910;52.086;21.066;2022-12-07T21:33:44;23.65;;;13.57;;
23474;SDS011;11910;52.086;21.066;2022-12-07T22:06:44;9.73;;;6.00;;
23474;SDS011;11910;52.086;21.066;2022-12-07T22:33:43;16.63;;;9.45;;
